createdAt,value
2019-04-01T00:00:29.864Z,1.00
2019-04-01T00:03:04.200Z,1.60
2019-04-01T00:05:36.883Z,1.20
2019-04-01T00:08:07.844Z,1.67
2019-04-01T00:10:37.464Z,1.30
2019-04-01T00:13:07.082Z,1.30
2019-04-01T00:15:36.737Z,1.80
2019-04-01T00:18:09.772Z,1.90
2019-04-01T00:20:39.403Z,1.57
2019-04-01T00:23:09.294Z,1.80
2019-04-01T00:25:39.042Z,1.05
2019-04-01T00:28:09.762Z,1.52
2019-04-01T00:30:41.069Z,1.25
2019-04-01T00:33:10.738Z,1.75
2019-04-01T00:35:40.449Z,1.35
2019-04-01T00:38:10.069Z,1.82
2019-04-01T00:40:39.748Z,1.62
2019-04-01T00:43:15.438Z,2.08
2019-04-01T00:45:46.515Z,1.62
2019-04-01T00:48:17.417Z,1.72
2019-04-01T00:50:47.122Z,1.32
2019-04-01T00:53:18.087Z,1.60
2019-04-01T00:55:49.231Z,1.10
2019-04-01T00:58:19.445Z,1.82
2019-04-01T01:00:50.140Z,2.12
2019-04-01T01:03:19.825Z,1.87
2019-04-01T01:05:51.216Z,2.37
2019-04-01T01:08:23.964Z,1.82
2019-04-01T01:10:53.598Z,2.27
2019-04-01T01:13:23.248Z,1.90
2019-04-01T01:15:54.153Z,2.90
2019-04-01T01:18:23.791Z,1.47
2019-04-01T01:20:56.034Z,2.30
2019-04-01T01:23:25.788Z,1.70
2019-04-01T01:25:55.430Z,1.85
2019-04-01T01:28:25.177Z,2.65
2019-04-01T01:30:56.468Z,2.30
2019-04-01T01:33:26.106Z,1.95
2019-04-01T01:35:55.746Z,1.32
2019-04-01T01:38:25.378Z,1.67
2019-04-01T01:40:55.006Z,1.00
2019-04-01T01:43:24.712Z,1.20
2019-04-01T01:46:02.515Z,1.12
2019-04-01T01:48:34.836Z,2.08
2019-04-01T01:51:05.546Z,1.72
2019-04-01T01:53:35.168Z,1.87
2019-04-01T01:56:05.036Z,1.17
2019-04-01T01:58:34.693Z,2.05
2019-04-01T02:01:04.480Z,1.90
2019-04-01T02:03:34.968Z,2.58
2019-04-01T02:06:04.732Z,3.90
2019-04-01T02:08:34.444Z,1.00
2019-04-01T02:11:07.344Z,1.40
2019-04-01T02:13:40.982Z,1.45
2019-04-01T02:16:14.955Z,2.05
2019-04-01T02:18:44.606Z,1.60
2019-04-01T02:21:18.866Z,1.05
2019-04-01T02:23:50.104Z,1.22
2019-04-01T02:26:19.748Z,1.50
2019-04-01T02:28:51.191Z,1.15
2019-04-01T02:31:20.918Z,1.98
2019-04-01T02:33:50.673Z,1.72
2019-04-01T02:36:20.282Z,1.17
2019-04-01T02:38:50.984Z,1.45
2019-04-01T02:41:20.667Z,1.17
2019-04-01T02:43:50.299Z,1.95
2019-04-01T02:46:20.162Z,1.20
2019-04-01T02:48:52.363Z,1.35
2019-04-01T02:51:22.000Z,1.52
2019-04-01T02:54:12.938Z,1.50
2019-04-01T02:56:42.567Z,3.50
2019-04-01T02:59:14.680Z,2.45
2019-04-01T03:01:49.105Z,1.72
2019-04-01T03:04:18.748Z,1.05
2019-04-01T03:06:49.712Z,1.42
2019-04-01T03:09:19.371Z,2.30
2019-04-01T03:11:49.008Z,1.35
2019-04-01T03:14:22.057Z,2.15
2019-04-01T03:16:52.295Z,0.98
2019-04-01T03:19:24.414Z,2.02
2019-04-01T03:21:54.093Z,1.55
2019-04-01T03:24:28.502Z,1.25
2019-04-01T03:26:58.136Z,1.10
2019-04-01T03:29:27.908Z,1.52
2019-04-01T03:31:58.797Z,1.30
2019-04-01T03:34:30.612Z,1.55
2019-04-01T03:37:02.562Z,1.30
2019-04-01T03:39:32.199Z,1.30
2019-04-01T03:42:04.597Z,0.90
2019-04-01T03:44:34.363Z,1.27
2019-04-01T03:47:09.877Z,1.10
2019-04-01T03:49:39.492Z,1.15
2019-04-01T03:52:10.341Z,1.32
2019-04-01T03:54:40.315Z,1.30
2019-04-01T03:57:09.979Z,1.25
2019-04-01T03:59:42.165Z,1.42
2019-04-01T04:02:12.971Z,1.45
2019-04-01T04:04:42.581Z,1.67
2019-04-01T04:07:12.347Z,1.20
2019-04-01T04:09:44.901Z,1.40
2019-04-01T04:12:14.520Z,1.20
2019-04-01T04:14:50.852Z,1.30
2019-04-01T04:17:17.689Z,1.52
2019-04-01T04:19:47.343Z,1.05
2019-04-01T04:22:16.993Z,1.77
2019-04-01T04:24:46.712Z,2.05
2019-04-01T04:27:16.335Z,1.42
2019-04-01T04:29:45.956Z,1.98
2019-04-01T04:32:15.589Z,1.62
2019-04-01T04:34:45.251Z,1.92
2019-04-01T04:37:15.787Z,1.17
2019-04-01T04:39:48.098Z,1.00
2019-04-01T04:42:19.328Z,1.20
2019-04-01T04:44:49.136Z,2.87
2019-04-01T04:47:21.857Z,1.42
2019-04-01T04:49:51.749Z,1.17
2019-04-01T04:52:21.382Z,1.40
2019-04-01T04:54:51.087Z,1.55
2019-04-01T04:57:20.706Z,0.95
2019-04-01T04:59:53.883Z,1.77
2019-04-01T05:02:24.748Z,1.20
2019-04-01T05:04:54.529Z,1.20
2019-04-01T05:07:25.546Z,1.85
2019-04-01T05:09:55.317Z,1.40
2019-04-01T05:12:24.936Z,1.40
2019-04-01T05:14:54.671Z,1.22
2019-04-01T05:17:24.299Z,1.60
2019-04-01T05:19:53.930Z,1.00
2019-04-01T05:22:24.723Z,2.05
2019-04-01T05:24:55.520Z,1.72
2019-04-01T05:27:26.748Z,2.10
2019-04-01T05:29:57.497Z,1.32
2019-04-01T05:32:28.323Z,2.00
2019-04-01T05:35:01.277Z,1.30
2019-04-01T05:37:31.383Z,1.27
2019-04-01T05:40:02.537Z,1.60
2019-04-01T05:42:35.940Z,1.98
2019-04-01T05:45:11.849Z,1.02
2019-04-01T05:47:45.198Z,1.00
2019-04-01T05:50:15.944Z,2.58
2019-04-01T05:52:46.671Z,1.80
2019-04-01T05:55:19.154Z,0.88
2019-04-01T05:57:51.269Z,1.20
2019-04-01T06:00:27.449Z,1.12
2019-04-01T06:03:02.727Z,1.37
2019-04-01T06:05:34.210Z,1.10
2019-04-01T06:08:11.984Z,1.25
2019-04-01T06:10:42.786Z,2.42
2019-04-01T06:13:12.595Z,1.80
2019-04-01T06:15:42.288Z,1.00
2019-04-01T06:18:14.270Z,3.92
2019-04-01T06:20:43.899Z,1.00
2019-04-01T06:23:13.522Z,3.05
2019-04-01T06:25:43.164Z,0.88
2019-04-01T06:28:13.019Z,1.80
2019-04-01T06:30:42.736Z,1.72
2019-04-01T06:33:14.369Z,1.15
2019-04-01T06:35:44.177Z,1.60
2019-04-01T06:38:22.979Z,1.60
2019-04-01T06:40:52.764Z,1.22
2019-04-01T06:43:26.168Z,1.22
2019-04-01T06:45:55.959Z,1.70
2019-04-01T06:48:31.705Z,1.20
2019-04-01T06:51:01.495Z,1.10
2019-04-01T06:53:31.247Z,1.12
2019-04-01T06:56:01.052Z,0.80
2019-04-01T06:58:30.828Z,2.02
2019-04-01T07:01:03.183Z,1.27
2019-04-01T07:03:32.899Z,1.42
2019-04-01T07:06:02.610Z,1.32
2019-04-01T07:08:38.845Z,1.17
2019-04-01T07:11:11.960Z,0.98
2019-04-01T07:13:41.612Z,1.70
2019-04-01T07:16:15.783Z,1.65
2019-04-01T07:18:44.777Z,1.20
2019-04-01T07:21:15.710Z,1.52
2019-04-01T07:23:47.937Z,1.98
2019-04-01T07:26:17.672Z,1.77
2019-04-01T07:28:49.166Z,0.95
2019-04-01T07:31:18.946Z,0.90
2019-04-01T07:33:50.160Z,0.90
2019-04-01T07:36:19.953Z,1.87
2019-04-01T07:38:49.665Z,0.90
2019-04-01T07:41:19.348Z,0.98
2019-04-01T07:43:50.106Z,1.40
2019-04-01T07:46:19.886Z,1.90
2019-04-01T07:48:50.048Z,1.00
2019-04-01T07:51:19.813Z,1.80
2019-04-01T07:53:49.645Z,1.12
2019-04-01T07:56:21.869Z,1.10
2019-04-01T07:58:51.730Z,1.32
2019-04-01T08:01:21.478Z,1.22
2019-04-01T08:03:51.185Z,1.55
2019-04-01T08:06:21.090Z,1.42
2019-04-01T08:08:52.151Z,1.15
2019-04-01T08:11:21.772Z,1.17
2019-04-01T08:13:51.427Z,1.40
2019-04-01T08:16:29.589Z,1.20
2019-04-01T08:19:00.242Z,1.15
2019-04-01T08:21:29.951Z,1.27
2019-04-01T08:23:59.792Z,1.15
2019-04-01T08:26:29.522Z,1.17
2019-04-01T08:29:00.870Z,0.80
2019-04-01T08:31:30.639Z,0.88
2019-04-01T08:34:00.339Z,1.57
2019-04-01T08:36:30.575Z,1.30
2019-04-01T08:39:13.365Z,1.02
2019-04-01T08:41:45.768Z,1.12
2019-04-01T08:44:15.703Z,1.77
2019-04-01T08:46:45.492Z,1.30
2019-04-01T08:49:15.252Z,0.95
2019-04-01T08:51:45.134Z,1.20
2019-04-01T08:54:16.003Z,0.80
2019-04-01T08:56:45.704Z,1.20
2019-04-01T08:59:15.338Z,1.27
2019-04-01T09:01:45.306Z,1.65
2019-04-01T09:04:15.948Z,1.20
2019-04-01T09:06:45.655Z,1.45
2019-04-01T09:09:15.362Z,0.90
2019-04-01T09:11:45.384Z,0.80
2019-04-01T09:14:16.352Z,0.90
2019-04-01T09:16:46.515Z,1.00
2019-04-01T09:19:16.130Z,0.90
2019-04-01T09:21:48.616Z,0.90
2019-04-01T09:24:19.852Z,1.40
2019-04-01T09:26:51.940Z,1.32
2019-04-01T09:29:21.574Z,1.65
2019-04-01T09:31:51.193Z,1.40
2019-04-01T09:34:20.823Z,1.07
2019-04-01T09:36:52.312Z,1.30
2019-04-01T09:39:24.440Z,1.12
2019-04-01T09:41:54.059Z,1.55
2019-04-01T09:44:36.122Z,1.20
2019-04-01T09:46:58.848Z,1.00
2019-04-01T09:49:28.527Z,1.40
2019-04-01T09:52:03.723Z,1.60
2019-04-01T09:54:31.579Z,0.80
2019-04-01T09:57:16.719Z,1.72
2019-04-01T09:59:34.357Z,0.98
2019-04-01T10:02:05.328Z,1.10
2019-04-01T10:04:35.490Z,1.35
2019-04-01T10:07:05.248Z,1.05
2019-04-01T10:09:34.870Z,0.98
2019-04-01T10:12:04.644Z,1.32
2019-04-01T10:14:34.352Z,1.85
2019-04-01T10:17:04.176Z,0.90
2019-04-01T10:19:33.866Z,1.20
2019-04-01T10:22:03.605Z,1.67
2019-04-01T10:24:33.218Z,1.60
2019-04-01T10:27:02.849Z,1.00
2019-04-01T10:29:32.542Z,1.95
2019-04-01T10:32:02.155Z,0.95
2019-04-01T10:34:34.118Z,1.10
2019-04-01T10:37:03.179Z,1.87
2019-04-01T10:39:35.430Z,1.20
2019-04-01T10:42:08.093Z,1.20
2019-04-01T10:44:43.944Z,1.10
2019-04-01T10:47:13.730Z,0.95
2019-04-01T10:49:43.535Z,1.22
2019-04-01T10:52:13.283Z,3.02
2019-04-01T10:54:43.012Z,1.87
2019-04-01T10:57:12.750Z,3.17
2019-04-01T10:59:44.533Z,2.65
2019-04-01T11:02:14.332Z,2.25
2019-04-01T11:04:45.183Z,4.55
2019-04-01T11:07:14.944Z,1.90
2019-04-01T11:09:44.722Z,2.15
2019-04-01T11:12:14.426Z,2.00
2019-04-01T11:14:44.122Z,1.80
2019-04-01T11:17:15.262Z,1.42
2019-04-01T11:19:45.100Z,2.42
2019-04-01T11:22:19.066Z,2.22
2019-04-01T11:24:49.110Z,1.20
2019-04-01T11:27:18.751Z,1.32
2019-04-01T11:29:48.591Z,1.85
2019-04-01T11:32:20.692Z,1.65
2019-04-01T11:34:50.382Z,1.22
2019-04-01T11:37:20.108Z,2.10
2019-04-01T11:39:52.341Z,1.40
2019-04-01T11:42:23.064Z,1.47
2019-04-01T11:44:54.037Z,0.88
2019-04-01T11:47:28.092Z,1.75
2019-04-01T11:50:00.779Z,1.50
2019-04-01T11:52:34.026Z,1.42
2019-04-01T11:55:06.453Z,2.10
2019-04-01T11:57:40.497Z,1.20
2019-04-01T12:00:14.912Z,1.52
2019-04-01T12:02:43.900Z,1.30
2019-04-01T12:05:13.657Z,1.30
2019-04-01T12:07:43.295Z,1.55
2019-04-01T12:10:15.041Z,1.42
2019-04-01T12:12:44.797Z,1.17
2019-04-01T12:15:14.682Z,1.62
2019-04-01T12:17:44.380Z,1.65
2019-04-01T12:20:14.099Z,1.10
2019-04-01T12:22:45.899Z,1.82
2019-04-01T12:25:16.122Z,1.32
2019-04-01T12:27:48.159Z,1.47
2019-04-01T12:30:17.992Z,1.35
2019-04-01T12:32:47.875Z,1.55
2019-04-01T12:35:19.122Z,1.70
2019-04-01T12:37:51.471Z,2.20
2019-04-01T12:40:28.744Z,1.50
2019-04-01T12:42:58.474Z,1.70
2019-04-01T12:45:28.272Z,1.30
2019-04-01T12:47:57.964Z,1.20
2019-04-01T12:50:27.682Z,1.98
2019-04-01T12:52:57.419Z,1.52
2019-04-01T12:55:30.015Z,1.25
2019-04-01T12:57:59.649Z,1.25
2019-04-01T13:00:33.341Z,1.20
2019-04-01T13:03:05.070Z,1.45
2019-04-01T13:05:34.836Z,1.20
2019-04-01T13:08:04.479Z,2.02
2019-04-01T13:10:36.157Z,2.17
2019-04-01T13:13:05.870Z,1.65
2019-04-01T13:15:40.161Z,1.60
2019-04-01T13:18:10.759Z,1.90
2019-04-01T13:20:41.951Z,1.82
2019-04-01T13:23:11.818Z,1.75
2019-04-01T13:25:42.229Z,1.62
2019-04-01T13:28:12.140Z,2.40
2019-04-01T13:30:42.651Z,1.42
2019-04-01T13:33:13.186Z,2.00
2019-04-01T13:35:43.612Z,1.75
2019-04-01T13:38:15.082Z,2.02
2019-04-01T13:40:45.400Z,1.92
2019-04-01T13:43:16.907Z,1.98
2019-04-01T13:45:47.002Z,1.45
2019-04-01T13:48:16.651Z,1.65
2019-04-01T13:50:48.860Z,1.75
2019-04-01T13:53:18.511Z,1.98
2019-04-01T13:55:48.228Z,1.85
2019-04-01T13:58:17.911Z,1.75
2019-04-01T14:00:59.061Z,2.42
2019-04-01T14:03:29.139Z,1.40
2019-04-01T14:05:59.149Z,2.08
2019-04-01T14:08:31.063Z,1.30
2019-04-01T14:11:00.759Z,1.27
2019-04-01T14:13:30.386Z,1.60
2019-04-01T14:16:00.030Z,1.40
2019-04-01T14:18:30.891Z,1.10
2019-04-01T14:21:14.910Z,2.05
2019-04-01T14:23:33.923Z,1.67
2019-04-01T14:26:05.720Z,1.70
2019-04-01T14:28:39.470Z,1.00
2019-04-01T14:31:09.650Z,2.33
2019-04-01T14:33:44.259Z,1.80
2019-04-01T14:36:16.239Z,1.60
2019-04-01T14:38:46.382Z,1.98
2019-04-01T14:41:16.028Z,1.45
2019-04-01T14:43:45.892Z,1.82
2019-04-01T14:46:15.642Z,1.52
2019-04-01T14:48:48.204Z,2.83
2019-04-01T14:51:19.444Z,1.70
2019-04-01T14:53:50.905Z,1.47
2019-04-01T14:56:20.538Z,1.70
2019-04-01T14:58:50.259Z,1.72
2019-04-01T15:01:20.394Z,1.67
2019-04-01T15:03:50.615Z,1.25
2019-04-01T15:06:21.319Z,1.10
2019-04-01T15:08:50.985Z,1.50
2019-04-01T15:11:20.605Z,1.10
2019-04-01T15:14:00.050Z,1.30
2019-04-01T15:16:30.472Z,1.50
2019-04-01T15:19:01.939Z,1.35
2019-04-01T15:21:34.523Z,1.10
2019-04-01T15:24:06.587Z,1.25
2019-04-01T15:26:37.192Z,1.37
2019-04-01T15:29:06.978Z,1.00
2019-04-01T15:31:39.475Z,1.32
2019-04-01T15:34:10.713Z,1.25
2019-04-01T15:36:42.957Z,1.82
2019-04-01T15:39:14.303Z,0.90
2019-04-01T15:41:46.778Z,1.40
2019-04-01T15:44:19.550Z,1.20
2019-04-01T15:46:49.316Z,1.10
2019-04-01T15:49:18.948Z,1.65
2019-04-01T15:51:48.696Z,1.07
2019-04-01T15:54:18.327Z,1.25
2019-04-01T15:56:48.147Z,1.55
2019-04-01T15:59:17.792Z,1.05
2019-04-01T16:01:47.448Z,1.17
2019-04-01T16:04:17.057Z,1.02
2019-04-01T16:06:47.791Z,0.88
2019-04-01T16:09:17.436Z,1.80
2019-04-01T16:11:47.468Z,2.05
2019-04-01T16:14:19.505Z,1.17
2019-04-01T16:16:49.232Z,1.47
2019-04-01T16:19:20.552Z,1.42
2019-04-01T16:21:52.181Z,1.30
2019-04-01T16:24:22.705Z,1.52
2019-04-01T16:26:52.323Z,1.30
2019-04-01T16:29:25.575Z,1.30
2019-04-01T16:31:57.862Z,1.77
2019-04-01T16:34:27.834Z,2.20
2019-04-01T16:36:57.483Z,6.92
2019-04-01T16:39:27.113Z,12.70
2019-04-01T16:41:56.798Z,15.48
2019-04-01T16:44:27.880Z,22.87
2019-04-01T16:46:57.573Z,24.92
2019-04-01T16:49:27.275Z,29.82
2019-04-01T16:51:57.224Z,27.32
2019-04-01T16:54:27.489Z,29.15
2019-04-01T16:56:57.959Z,26.20
2019-04-01T16:59:31.055Z,27.90
2019-04-01T17:02:00.765Z,25.88
2019-04-01T17:04:32.367Z,22.30
2019-04-01T17:07:03.246Z,21.68
2019-04-01T17:09:37.039Z,22.60
2019-04-01T17:12:10.298Z,18.87
2019-04-01T17:14:38.390Z,19.35
2019-04-01T17:17:16.377Z,19.27
2019-04-01T17:19:47.339Z,22.82
2019-04-01T17:22:17.194Z,21.82
2019-04-01T17:24:49.247Z,19.87
2019-04-01T17:27:22.580Z,17.35
2019-04-01T17:29:55.189Z,19.27
2019-04-01T17:32:24.836Z,16.48
2019-04-01T17:34:55.648Z,12.68
2019-04-01T17:37:26.793Z,14.25
2019-04-01T17:39:56.546Z,14.75
2019-04-01T17:42:26.221Z,15.50
2019-04-01T17:44:58.708Z,15.03
2019-04-01T17:47:29.343Z,14.38
2019-04-01T17:50:03.039Z,13.85
2019-04-01T17:52:33.789Z,12.40
2019-04-01T17:55:03.452Z,14.35
2019-04-01T17:57:34.147Z,13.65
2019-04-01T18:00:06.983Z,13.05
2019-04-01T18:02:37.004Z,13.88
2019-04-01T18:05:08.346Z,14.33
2019-04-01T18:07:40.009Z,11.78
2019-04-01T18:10:09.814Z,13.68
2019-04-01T18:12:39.537Z,12.50
2019-04-01T18:15:09.320Z,12.07
2019-04-01T18:17:39.069Z,10.80
2019-04-01T18:20:09.148Z,10.10
2019-04-01T18:22:41.547Z,12.10
2019-04-01T18:25:12.628Z,9.50
2019-04-01T18:27:42.388Z,11.15
2019-04-01T18:30:12.440Z,9.18
2019-04-01T18:32:45.210Z,8.75
2019-04-01T18:35:15.004Z,9.58
2019-04-01T18:37:44.713Z,9.80
2019-04-01T18:40:32.000Z,9.63
2019-04-01T18:42:52.858Z,10.93
2019-04-01T18:45:22.710Z,10.45
2019-04-01T18:47:58.487Z,8.63
2019-04-01T18:50:33.211Z,9.10
2019-04-01T18:53:07.177Z,7.97
2019-04-01T18:55:37.069Z,9.48
2019-04-01T18:58:06.831Z,7.85
2019-04-01T19:00:36.524Z,9.18
2019-04-01T19:03:06.224Z,8.98
2019-04-01T19:05:39.007Z,7.75
2019-04-01T19:08:09.939Z,7.30
2019-04-01T19:10:39.866Z,6.25
2019-04-01T19:13:12.333Z,6.83
2019-04-01T19:15:43.437Z,5.75
2019-04-01T19:18:19.060Z,3.75
2019-04-01T19:20:56.236Z,4.08
2019-04-01T19:23:20.191Z,6.03
2019-04-01T19:25:49.938Z,5.85
2019-04-01T19:28:19.561Z,4.30
2019-04-01T19:30:49.369Z,2.83
2019-04-01T19:33:20.280Z,3.20
2019-04-01T19:35:50.042Z,3.27
2019-04-01T19:38:21.299Z,4.03
2019-04-01T19:40:51.310Z,3.10
2019-04-01T19:43:21.794Z,2.17
2019-04-01T19:45:51.416Z,5.70
2019-04-01T19:48:21.024Z,2.98
2019-04-01T19:50:52.621Z,3.67
2019-04-01T19:53:27.607Z,3.62
2019-04-01T19:56:06.362Z,3.60
2019-04-01T19:58:37.735Z,3.92
2019-04-01T20:01:11.413Z,4.20
2019-04-01T20:03:41.403Z,4.03
2019-04-01T20:06:15.258Z,3.60
2019-04-01T20:08:45.897Z,3.75
2019-04-01T20:11:16.228Z,2.65
2019-04-01T20:13:47.752Z,4.70
2019-04-01T20:16:17.384Z,4.25
2019-04-01T20:18:48.876Z,2.85
2019-04-01T20:21:18.504Z,4.60
2019-04-01T20:23:50.193Z,3.62
2019-04-01T20:26:20.780Z,3.05
2019-04-01T20:28:52.079Z,5.33
2019-04-01T20:31:21.995Z,4.30
2019-04-01T20:33:53.437Z,2.80
2019-04-01T20:36:28.806Z,3.67
2019-04-01T20:38:55.243Z,4.30
2019-04-01T20:41:28.686Z,5.35
2019-04-01T20:43:58.414Z,3.70
2019-04-01T20:46:28.275Z,4.67
2019-04-01T20:48:58.544Z,4.20
2019-04-01T20:51:30.512Z,3.40
2019-04-01T20:54:00.185Z,3.77
2019-04-01T20:56:29.903Z,4.45
2019-04-01T20:59:00.239Z,3.20
2019-04-01T21:01:30.500Z,3.83
2019-04-01T21:04:04.720Z,2.67
2019-04-01T21:06:36.798Z,3.60
2019-04-01T21:09:13.764Z,3.52
2019-04-01T21:11:43.413Z,3.27
2019-04-01T21:14:13.037Z,4.40
2019-04-01T21:16:42.703Z,3.72
2019-04-01T21:19:17.764Z,3.60
2019-04-01T21:21:48.969Z,3.08
2019-04-01T21:24:18.614Z,4.03
2019-04-01T21:26:49.634Z,1.85
2019-04-01T21:29:19.249Z,4.67
2019-04-01T21:31:48.969Z,3.00
2019-04-01T21:34:24.492Z,3.80
2019-04-01T21:36:56.002Z,3.98
2019-04-01T21:39:25.697Z,3.55
2019-04-01T21:41:55.351Z,2.58
2019-04-01T21:44:27.828Z,2.77
2019-04-01T21:46:57.531Z,3.45
2019-04-01T21:49:28.991Z,2.98
2019-04-01T21:52:02.154Z,4.28
2019-04-01T21:54:32.014Z,2.40
2019-04-01T21:57:01.899Z,2.47
2019-04-01T21:59:31.544Z,2.60
2019-04-01T22:02:01.393Z,3.47
2019-04-01T22:04:31.115Z,4.80
2019-04-01T22:07:00.777Z,2.25
2019-04-01T22:09:30.386Z,2.90
2019-04-01T22:12:00.114Z,2.70
2019-04-01T22:14:31.098Z,4.05
2019-04-01T22:17:00.778Z,3.80
2019-04-01T22:19:33.414Z,3.37
2019-04-01T22:22:03.086Z,4.80
2019-04-01T22:24:33.057Z,2.85
2019-04-01T22:27:03.146Z,3.60
2019-04-01T22:29:37.339Z,2.70
2019-04-01T22:32:07.948Z,2.47
2019-04-01T22:34:38.214Z,2.35
2019-04-01T22:37:08.652Z,3.05
2019-04-01T22:39:38.311Z,2.47
2019-04-01T22:42:08.034Z,2.75
2019-04-01T22:44:37.649Z,3.22
2019-04-01T22:47:07.275Z,2.67
2019-04-01T22:49:36.884Z,3.17
2019-04-01T22:52:06.920Z,2.10
2019-04-01T22:54:36.529Z,3.12
2019-04-01T22:57:06.239Z,3.67
2019-04-01T22:59:38.229Z,4.25
2019-04-01T23:02:13.539Z,2.80
2019-04-01T23:04:49.335Z,4.35
2019-04-01T23:07:21.427Z,3.37
2019-04-01T23:09:52.280Z,3.02
2019-04-01T23:12:22.355Z,2.52
2019-04-01T23:14:52.402Z,2.87
2019-04-01T23:17:24.566Z,2.75
2019-04-01T23:19:54.194Z,3.00
2019-04-01T23:22:23.883Z,3.85
2019-04-01T23:24:53.563Z,2.08
2019-04-01T23:27:24.287Z,2.62
2019-04-01T23:29:54.313Z,2.40
2019-04-01T23:32:28.105Z,2.72
2019-04-01T23:34:57.751Z,3.70
2019-04-01T23:37:27.436Z,2.83
2019-04-01T23:39:57.074Z,2.45
2019-04-01T23:42:27.253Z,2.42
2019-04-01T23:44:57.812Z,2.50
2019-04-01T23:47:30.237Z,1.98
2019-04-01T23:50:00.387Z,2.42
2019-04-01T23:52:30.244Z,2.40
2019-04-01T23:55:00.181Z,1.87
2019-04-01T23:57:29.959Z,2.27
2019-04-01T23:59:59.710Z,3.00
